LGPZ/PVK METAR and TAF weather

Enter ICAO airport designator
Station Type Date Time Source
LGPZ METAR 2021/07/27 21:50 UTC NOAA

LGPZ 272150Z 00000KT CAVOK 23/21 Q1015


Station Type Date Time Source
LGPZ Decoded METAR 2021/07/27 21:50 UTC NOAA

Aktion Airport , Greece (LGPZ) 38-37N 020-46E 4M
Jul 27, 2021 - 05:50 PM EDT / 2021.07.27 2150 UTC
Wind: Calm:0
Visibility: greater than 7 mile(s):0
Temperature: 73 F (23 C)
Dew Point: 69 F (21 C)
Relative Humidity: 88%
Pressure (altimeter): 29.97 in. Hg (1015 hPa)
ob: LGPZ 272150Z 00000KT CAVOK 23/21 Q1015
cycle: 22

Station Type Date Time Source
LGPZ TAF 2021/07/27 18:12 UTC NOAA

TAF TAF LGPZ 271700Z 2718/2818 28008KT 9999 FEW018
BECMG 2719/2721 VRB03KT
BECMG 2809/2811 28010KT

Example: see airport list